createdAt,value
2017-08-15T00:00:06.335Z,0
2017-08-15T00:01:05.961Z,0
2017-08-15T00:02:06.328Z,0
2017-08-15T00:03:06.280Z,0
2017-08-15T00:04:06.284Z,0
2017-08-15T00:05:05.301Z,0
2017-08-15T00:06:06.261Z,0
2017-08-15T00:07:06.292Z,0
2017-08-15T00:08:06.263Z,0
2017-08-15T00:09:05.919Z,0
2017-08-15T00:10:06.257Z,0
2017-08-15T00:11:05.618Z,0
2017-08-15T00:12:05.911Z,0
2017-08-15T00:13:05.940Z,0
2017-08-15T00:14:05.889Z,0
2017-08-15T00:15:05.928Z,0
2017-08-15T00:16:05.884Z,0
2017-08-15T00:17:06.226Z,0
2017-08-15T00:18:06.238Z,0
2017-08-15T00:19:06.270Z,0
2017-08-15T00:20:05.992Z,0
2017-08-15T00:21:05.884Z,0
2017-08-15T00:22:05.965Z,0
2017-08-15T00:23:05.892Z,0
2017-08-15T00:24:05.568Z,0
2017-08-15T00:25:05.601Z,0
2017-08-15T00:26:05.845Z,0
2017-08-15T00:27:05.834Z,0
2017-08-15T00:28:05.834Z,0
2017-08-15T00:29:05.831Z,0
2017-08-15T00:30:05.171Z,0
2017-08-15T00:31:05.827Z,0
2017-08-15T00:32:05.815Z,0
2017-08-15T00:33:05.828Z,0
2017-08-15T00:34:05.480Z,0
2017-08-15T00:35:06.124Z,0
2017-08-15T00:36:05.486Z,0
2017-08-15T00:37:05.478Z,0
2017-08-15T00:38:05.800Z,0
2017-08-15T00:39:06.096Z,0
2017-08-15T00:40:06.083Z,0
2017-08-15T00:41:05.827Z,0
2017-08-15T00:42:05.779Z,0
2017-08-15T00:43:05.164Z,0
2017-08-15T00:44:05.422Z,0
2017-08-15T00:45:05.755Z,0
2017-08-15T00:46:06.055Z,0
2017-08-15T00:47:05.726Z,0
2017-08-15T00:48:05.400Z,0
2017-08-15T00:49:05.721Z,0
2017-08-15T00:50:05.099Z,0
2017-08-15T00:51:05.715Z,0
2017-08-15T00:52:05.060Z,0
2017-08-15T00:53:05.698Z,0
2017-08-15T00:54:06.015Z,0
2017-08-15T00:55:05.587Z,0
2017-08-15T00:56:05.359Z,0
2017-08-15T00:57:05.353Z,0
2017-08-15T00:58:05.708Z,0
2017-08-15T00:59:05.663Z,0
2017-08-15T01:00:05.664Z,0
2017-08-15T01:01:05.031Z,0
2017-08-15T01:02:05.334Z,0
2017-08-15T01:03:05.330Z,0
2017-08-15T01:04:05.344Z,0
2017-08-15T01:05:05.636Z,0
2017-08-15T01:06:05.347Z,0
2017-08-15T01:07:05.638Z,0
2017-08-15T01:08:05.632Z,0
2017-08-15T01:09:05.630Z,0
2017-08-15T01:10:05.962Z,0
2017-08-15T01:11:05.960Z,0
2017-08-15T01:12:05.288Z,0
2017-08-15T01:13:05.595Z,0
2017-08-15T01:14:05.909Z,0
2017-08-15T01:15:05.905Z,0
2017-08-15T01:16:05.907Z,0
2017-08-15T01:17:05.932Z,0
2017-08-15T01:18:05.590Z,0
2017-08-15T01:19:05.251Z,0
2017-08-15T01:20:05.268Z,0
2017-08-15T01:21:05.567Z,0
2017-08-15T01:22:05.928Z,0
2017-08-15T01:23:05.554Z,0
2017-08-15T01:24:05.902Z,0
2017-08-15T01:25:05.542Z,0
2017-08-15T01:26:05.565Z,0
2017-08-15T01:27:05.539Z,0
2017-08-15T01:28:05.588Z,0
2017-08-15T01:29:05.205Z,0
2017-08-15T01:30:05.188Z,0
2017-08-15T01:31:05.505Z,0
2017-08-15T01:32:05.206Z,0
2017-08-15T01:33:05.173Z,0
2017-08-15T01:34:05.813Z,0
2017-08-15T01:35:05.171Z,0
2017-08-15T01:36:05.202Z,0
2017-08-15T01:37:05.813Z,0
2017-08-15T01:38:04.833Z,0
2017-08-15T01:39:05.818Z,0
2017-08-15T01:40:05.507Z,0
2017-08-15T01:41:05.772Z,0
2017-08-15T01:42:05.469Z,0
2017-08-15T01:43:05.767Z,0
2017-08-15T01:44:05.759Z,0
2017-08-15T01:45:05.470Z,0
2017-08-15T01:46:05.752Z,0
2017-08-15T01:47:04.800Z,0
2017-08-15T01:48:05.759Z,0
2017-08-15T01:49:05.423Z,0
2017-08-15T01:50:05.405Z,0
2017-08-15T01:51:05.410Z,0
2017-08-15T01:52:05.087Z,0
2017-08-15T01:53:05.072Z,0
2017-08-15T01:54:05.407Z,0
2017-08-15T01:55:05.075Z,0
2017-08-15T01:56:05.057Z,0
2017-08-15T01:57:05.092Z,0
2017-08-15T01:58:05.721Z,0
2017-08-15T01:59:05.055Z,0
2017-08-15T02:00:05.352Z,0
2017-08-15T02:01:05.376Z,0
2017-08-15T02:02:04.733Z,0
2017-08-15T02:03:05.684Z,0
2017-08-15T02:04:04.711Z,0
2017-08-15T02:05:05.356Z,0
2017-08-15T02:06:05.020Z,0
2017-08-15T02:07:05.648Z,0
2017-08-15T02:08:05.648Z,0
2017-08-15T02:09:05.309Z,0
2017-08-15T02:10:05.328Z,0
2017-08-15T02:11:05.660Z,0
2017-08-15T02:12:05.517Z,0
2017-08-15T02:13:05.305Z,0
2017-08-15T02:14:05.275Z,0
2017-08-15T02:15:04.656Z,0
2017-08-15T02:16:05.286Z,0
2017-08-15T02:17:05.586Z,0
2017-08-15T02:18:05.593Z,0
2017-08-15T02:19:05.274Z,0
2017-08-15T02:20:04.940Z,0
2017-08-15T02:21:05.245Z,0
2017-08-15T02:22:05.581Z,0
2017-08-15T02:23:05.585Z,0
2017-08-15T02:24:05.575Z,0
2017-08-15T02:25:05.577Z,0
2017-08-15T02:26:04.899Z,0
2017-08-15T02:27:04.910Z,0
2017-08-15T02:28:05.248Z,0
2017-08-15T02:29:05.543Z,0
2017-08-15T02:30:05.543Z,0
2017-08-15T02:31:05.518Z,0
2017-08-15T02:32:05.196Z,0
2017-08-15T02:33:05.523Z,0
2017-08-15T02:34:05.192Z,0
2017-08-15T02:35:04.851Z,0
2017-08-15T02:36:04.851Z,0
2017-08-15T02:37:04.550Z,0
2017-08-15T02:38:05.189Z,0
2017-08-15T02:39:05.183Z,0
2017-08-15T02:40:04.829Z,0
2017-08-15T02:41:05.168Z,0
2017-08-15T02:42:05.492Z,0
2017-08-15T02:43:05.176Z,0
2017-08-15T02:44:05.681Z,0
2017-08-15T02:45:05.133Z,0
2017-08-15T02:46:05.148Z,0
2017-08-15T02:47:05.438Z,0
2017-08-15T02:48:04.791Z,0
2017-08-15T02:49:04.813Z,0
2017-08-15T02:50:05.115Z,0
2017-08-15T02:51:05.095Z,0
2017-08-15T02:52:04.825Z,0
2017-08-15T02:53:04.448Z,0
2017-08-15T02:54:05.131Z,0
2017-08-15T02:55:05.177Z,0
2017-08-15T02:56:05.070Z,0
2017-08-15T02:57:05.071Z,0
2017-08-15T02:58:05.369Z,0
2017-08-15T02:59:05.382Z,0
2017-08-15T03:00:05.378Z,0
2017-08-15T03:01:05.056Z,0
2017-08-15T03:02:04.728Z,0
2017-08-15T03:03:05.022Z,0
2017-08-15T03:04:04.704Z,0
2017-08-15T03:05:04.713Z,0
2017-08-15T03:06:04.707Z,0
2017-08-15T03:07:04.679Z,0
2017-08-15T03:08:05.362Z,0
2017-08-15T03:09:04.702Z,0
2017-08-15T03:10:05.314Z,0
2017-08-15T03:11:05.014Z,0
2017-08-15T03:12:05.316Z,0
2017-08-15T03:13:04.992Z,0
2017-08-15T03:14:04.695Z,0
2017-08-15T03:15:05.323Z,0
2017-08-15T03:16:05.276Z,0
2017-08-15T03:17:05.280Z,0
2017-08-15T03:18:04.969Z,0
2017-08-15T03:19:04.948Z,0
2017-08-15T03:20:04.958Z,0
2017-08-15T03:21:04.947Z,0
2017-08-15T03:22:04.926Z,0
2017-08-15T03:23:04.619Z,0
2017-08-15T03:24:05.275Z,0
2017-08-15T03:25:04.611Z,0
2017-08-15T03:26:05.243Z,0
2017-08-15T03:27:05.222Z,0
2017-08-15T03:28:05.228Z,0
2017-08-15T03:29:05.213Z,0
2017-08-15T03:30:04.896Z,0
2017-08-15T03:31:04.576Z,0
2017-08-15T03:32:04.570Z,0
2017-08-15T03:33:05.202Z,0
2017-08-15T03:34:04.575Z,0
2017-08-15T03:35:05.189Z,0
2017-08-15T03:36:04.886Z,0
2017-08-15T03:37:05.169Z,0
2017-08-15T03:38:04.551Z,0
2017-08-15T03:39:05.203Z,0
2017-08-15T03:40:04.194Z,0
2017-08-15T03:41:04.510Z,0
2017-08-15T03:42:04.830Z,0
2017-08-15T03:43:04.186Z,0
2017-08-15T03:44:04.511Z,0
2017-08-15T03:45:05.164Z,0
2017-08-15T03:46:04.193Z,0
2017-08-15T03:47:05.120Z,0
2017-08-15T03:48:04.787Z,0
2017-08-15T03:49:05.118Z,0
2017-08-15T03:50:05.134Z,0
2017-08-15T03:51:04.463Z,0
2017-08-15T03:52:04.785Z,0
2017-08-15T03:53:05.109Z,0
2017-08-15T03:54:04.448Z,5
2017-08-15T03:55:04.795Z,5
2017-08-15T03:56:05.095Z,5
2017-08-15T03:57:04.793Z,5
2017-08-15T03:58:04.755Z,5
2017-08-15T03:59:05.067Z,5
2017-08-15T04:00:05.075Z,5
2017-08-15T04:01:05.055Z,5
2017-08-15T04:02:04.725Z,5
2017-08-15T04:03:04.727Z,5
2017-08-15T04:04:04.398Z,5
2017-08-15T04:05:04.393Z,5
2017-08-15T04:06:04.786Z,10
2017-08-15T04:07:05.023Z,10
2017-08-15T04:08:05.019Z,10
2017-08-15T04:09:04.718Z,10
2017-08-15T04:10:04.690Z,10
2017-08-15T04:11:04.690Z,10
2017-08-15T04:12:05.008Z,10
2017-08-15T04:13:04.672Z,10
2017-08-15T04:14:04.665Z,10
2017-08-15T04:15:04.663Z,15
2017-08-15T04:16:04.337Z,15
2017-08-15T04:17:04.974Z,15
2017-08-15T04:18:04.008Z,15
2017-08-15T04:19:04.641Z,20
2017-08-15T04:20:04.328Z,20
2017-08-15T04:21:04.988Z,25
2017-08-15T04:22:04.376Z,25
2017-08-15T04:23:04.330Z,30
2017-08-15T04:24:04.657Z,30
2017-08-15T04:25:04.655Z,30
2017-08-15T04:26:04.295Z,30
2017-08-15T04:27:04.611Z,30
2017-08-15T04:28:03.992Z,30
2017-08-15T04:29:04.331Z,30
2017-08-15T04:30:04.917Z,30
2017-08-15T04:31:04.905Z,25
2017-08-15T04:32:04.283Z,25
2017-08-15T04:33:04.599Z,30
2017-08-15T04:34:04.906Z,30
2017-08-15T04:35:05.052Z,30
2017-08-15T04:36:04.249Z,30
2017-08-15T04:37:04.579Z,35
2017-08-15T04:38:04.877Z,35
2017-08-15T04:39:04.280Z,40
2017-08-15T04:40:04.923Z,40
2017-08-15T04:41:04.546Z,40
2017-08-15T04:42:04.554Z,40
2017-08-15T04:43:04.878Z,40
2017-08-15T04:44:04.246Z,40
2017-08-15T04:45:04.212Z,40
2017-08-15T04:46:04.556Z,40
2017-08-15T04:47:04.878Z,40
2017-08-15T04:48:04.546Z,40
2017-08-15T04:49:04.524Z,40
2017-08-15T04:50:04.554Z,40
2017-08-15T04:51:04.835Z,40
2017-08-15T04:52:04.516Z,40
2017-08-15T04:53:04.832Z,45
2017-08-15T04:54:04.514Z,45
2017-08-15T04:55:04.827Z,50
2017-08-15T04:56:04.525Z,55
2017-08-15T04:57:04.495Z,65
2017-08-15T04:58:04.495Z,65
2017-08-15T04:59:04.151Z,70
2017-08-15T05:00:04.519Z,80
2017-08-15T05:01:04.166Z,90
2017-08-15T05:02:03.822Z,105
2017-08-15T05:03:04.813Z,110
2017-08-15T05:04:04.470Z,110
2017-08-15T05:05:04.517Z,110
2017-08-15T05:06:04.791Z,115
2017-08-15T05:07:04.477Z,115
2017-08-15T05:08:04.784Z,110
2017-08-15T05:09:04.473Z,115
2017-08-15T05:10:04.440Z,115
2017-08-15T05:11:04.112Z,110
2017-08-15T05:12:04.449Z,115
2017-08-15T05:13:04.453Z,115
2017-08-15T05:14:04.425Z,125
2017-08-15T05:15:04.785Z,125
2017-08-15T05:16:04.135Z,135
2017-08-15T05:17:04.467Z,140
2017-08-15T05:18:04.429Z,140
2017-08-15T05:19:04.789Z,140
2017-08-15T05:20:04.729Z,135
2017-08-15T05:21:04.409Z,140
2017-08-15T05:22:04.425Z,140
2017-08-15T05:23:04.717Z,135
2017-08-15T05:24:04.480Z,140
2017-08-15T05:25:04.727Z,140
2017-08-15T05:26:04.401Z,135
2017-08-15T05:27:04.073Z,135
2017-08-15T05:28:04.698Z,135
2017-08-15T05:29:04.403Z,130
2017-08-15T05:30:04.399Z,130
2017-08-15T05:31:04.398Z,130
2017-08-15T05:32:04.400Z,130
2017-08-15T05:33:04.698Z,130
2017-08-15T05:34:04.739Z,130
2017-08-15T05:35:04.063Z,140
2017-08-15T05:36:04.702Z,150
2017-08-15T05:37:04.066Z,155
2017-08-15T05:38:04.687Z,165
2017-08-15T05:39:04.370Z,175
2017-08-15T05:40:04.349Z,190
2017-08-15T05:41:04.664Z,205
2017-08-15T05:42:04.028Z,215
2017-08-15T05:43:04.022Z,225
2017-08-15T05:44:04.348Z,225
2017-08-15T05:45:04.682Z,220
2017-08-15T05:46:03.696Z,215
2017-08-15T05:47:04.666Z,200
2017-08-15T05:48:04.329Z,175
2017-08-15T05:49:04.387Z,165
2017-08-15T05:50:04.334Z,180
2017-08-15T05:51:04.662Z,185
2017-08-15T05:52:04.328Z,185
2017-08-15T05:53:04.664Z,185
2017-08-15T05:54:03.988Z,185
2017-08-15T05:55:03.985Z,185
2017-08-15T05:56:03.998Z,180
2017-08-15T05:57:04.305Z,180
2017-08-15T05:58:04.632Z,180
2017-08-15T05:59:04.617Z,170
2017-08-15T06:00:03.979Z,165
2017-08-15T06:01:04.358Z,155
2017-08-15T06:02:04.627Z,155
2017-08-15T06:03:04.631Z,160
2017-08-15T06:04:04.323Z,155
2017-08-15T06:05:04.289Z,160
2017-08-15T06:06:04.282Z,165
2017-08-15T06:07:04.278Z,170
2017-08-15T06:08:04.629Z,175
2017-08-15T06:09:04.626Z,185
2017-08-15T06:10:04.303Z,190
2017-08-15T06:11:04.275Z,195
2017-08-15T06:12:04.618Z,190
2017-08-15T06:13:04.308Z,180
2017-08-15T06:14:03.659Z,165
2017-08-15T06:15:04.588Z,150
2017-08-15T06:16:04.609Z,150
2017-08-15T06:17:04.255Z,155
2017-08-15T06:18:04.306Z,155
2017-08-15T06:19:04.587Z,160
2017-08-15T06:20:04.590Z,170
2017-08-15T06:21:04.286Z,185
2017-08-15T06:22:04.569Z,195
2017-08-15T06:23:04.246Z,205
2017-08-15T06:24:04.267Z,225
2017-08-15T06:25:03.925Z,225
2017-08-15T06:26:04.592Z,230
2017-08-15T06:27:03.967Z,225
2017-08-15T06:28:04.240Z,215
2017-08-15T06:29:04.232Z,200
2017-08-15T06:30:04.626Z,195
2017-08-15T06:31:03.944Z,190
2017-08-15T06:32:04.574Z,185
2017-08-15T06:33:04.548Z,185
2017-08-15T06:34:03.595Z,190
2017-08-15T06:35:04.552Z,190
2017-08-15T06:36:04.560Z,185
2017-08-15T06:37:04.578Z,180
2017-08-15T06:38:04.569Z,175
2017-08-15T06:39:04.218Z,175
2017-08-15T06:40:03.931Z,175
2017-08-15T06:41:04.554Z,175
2017-08-15T06:42:04.558Z,175
2017-08-15T06:43:03.572Z,180
2017-08-15T06:44:03.901Z,180
2017-08-15T06:45:03.577Z,180
2017-08-15T06:46:07.557Z,185
2017-08-15T06:47:03.886Z,195
2017-08-15T06:48:04.207Z,200
2017-08-15T06:49:04.533Z,230
2017-08-15T06:50:03.885Z,245
2017-08-15T06:51:03.886Z,230
2017-08-15T06:52:04.537Z,220
2017-08-15T06:53:03.230Z,240
2017-08-15T06:54:04.517Z,270
2017-08-15T06:55:04.190Z,265
2017-08-15T06:56:04.205Z,280
2017-08-15T06:57:04.205Z,300
2017-08-15T06:58:04.220Z,325
2017-08-15T06:59:04.537Z,340
2017-08-15T07:00:03.552Z,340
2017-08-15T07:01:04.209Z,360
2017-08-15T07:02:04.185Z,370
2017-08-15T07:03:04.203Z,380
2017-08-15T07:04:04.534Z,385
2017-08-15T07:05:04.509Z,390
2017-08-15T07:06:04.534Z,390
2017-08-15T07:07:03.904Z,405
2017-08-15T07:08:04.194Z,415
2017-08-15T07:09:03.872Z,405
2017-08-15T07:10:03.890Z,425
2017-08-15T07:11:04.536Z,440
2017-08-15T07:12:03.923Z,445
2017-08-15T07:13:03.904Z,430
2017-08-15T07:14:03.561Z,415
2017-08-15T07:15:04.226Z,415
2017-08-15T07:16:03.922Z,425
2017-08-15T07:17:04.232Z,420
2017-08-15T07:18:04.240Z,420
2017-08-15T07:19:04.257Z,415
2017-08-15T07:20:04.583Z,425
2017-08-15T07:21:03.284Z,435
2017-08-15T07:22:03.600Z,425
2017-08-15T07:23:04.683Z,415
2017-08-15T07:24:04.566Z,395
2017-08-15T07:25:04.259Z,355
2017-08-15T07:26:03.931Z,360
2017-08-15T07:27:04.640Z,360
2017-08-15T07:28:03.966Z,380
2017-08-15T07:29:04.265Z,385
2017-08-15T07:30:03.982Z,390
2017-08-15T07:31:04.612Z,385
2017-08-15T07:32:03.968Z,385
2017-08-15T07:33:04.290Z,390
2017-08-15T07:34:04.031Z,395
2017-08-15T07:35:04.689Z,400
2017-08-15T07:36:04.319Z,400
2017-08-15T07:37:04.630Z,410
2017-08-15T07:38:03.994Z,410
2017-08-15T07:39:04.649Z,410
2017-08-15T07:40:04.020Z,410
2017-08-15T07:41:04.667Z,410
2017-08-15T07:42:04.017Z,420
2017-08-15T07:43:04.658Z,425
2017-08-15T07:44:04.055Z,425
2017-08-15T07:45:04.801Z,430
2017-08-15T07:46:04.159Z,435
2017-08-15T07:47:04.443Z,435
2017-08-15T07:48:04.525Z,415
2017-08-15T07:49:04.549Z,415
2017-08-15T07:50:03.826Z,415
2017-08-15T07:51:05.266Z,415
2017-08-15T07:52:04.881Z,425
2017-08-15T07:53:05.035Z,420
2017-08-15T07:54:04.086Z,420
2017-08-15T07:55:04.240Z,410
2017-08-15T07:56:04.646Z,415
2017-08-15T07:57:04.508Z,420
2017-08-15T07:58:04.204Z,410
2017-08-15T07:59:04.849Z,405
2017-08-15T08:00:04.525Z,400
2017-08-15T08:01:04.967Z,390
2017-08-15T08:02:04.919Z,370
2017-08-15T08:03:04.882Z,360
2017-08-15T08:04:04.620Z,360
2017-08-15T08:05:04.170Z,355
2017-08-15T08:06:04.644Z,340
2017-08-15T08:07:04.890Z,335
2017-08-15T08:08:04.351Z,340
2017-08-15T08:09:04.955Z,335
2017-08-15T08:10:05.085Z,320
2017-08-15T08:11:04.236Z,315
2017-08-15T08:12:04.680Z,310
2017-08-15T08:13:04.971Z,310
2017-08-15T08:14:04.682Z,305
2017-08-15T08:15:05.553Z,295
2017-08-15T08:16:04.275Z,305
2017-08-15T08:17:04.899Z,310
2017-08-15T08:18:04.742Z,290
2017-08-15T08:19:04.568Z,280
2017-08-15T08:20:04.604Z,290
2017-08-15T08:21:03.951Z,290
2017-08-15T08:22:04.963Z,280
2017-08-15T08:23:04.238Z,290
2017-08-15T08:24:04.517Z,285
2017-08-15T08:25:04.948Z,280
2017-08-15T08:26:04.690Z,270
2017-08-15T08:27:04.909Z,275
2017-08-15T08:28:04.734Z,270
2017-08-15T08:29:04.741Z,265
2017-08-15T08:30:05.192Z,275
2017-08-15T08:31:05.206Z,275
2017-08-15T08:32:04.368Z,290
2017-08-15T08:33:04.289Z,285
2017-08-15T08:34:04.802Z,285
2017-08-15T08:35:04.709Z,295
2017-08-15T08:36:04.451Z,295
2017-08-15T08:37:04.341Z,305
2017-08-15T08:38:04.148Z,295
2017-08-15T08:39:04.929Z,295
2017-08-15T08:40:04.697Z,290
2017-08-15T08:41:04.988Z,280
2017-08-15T08:42:05.069Z,280
2017-08-15T08:43:05.017Z,285
2017-08-15T08:44:04.813Z,275
2017-08-15T08:45:04.950Z,265
2017-08-15T08:46:05.090Z,245
2017-08-15T08:47:04.814Z,245
2017-08-15T08:48:04.865Z,240
2017-08-15T08:49:04.675Z,235
2017-08-15T08:50:04.928Z,230
2017-08-15T08:51:04.942Z,220
2017-08-15T08:52:04.607Z,215
2017-08-15T08:53:04.283Z,210
2017-08-15T08:54:04.606Z,220
2017-08-15T08:55:04.615Z,215
2017-08-15T08:56:04.651Z,215
2017-08-15T08:57:04.997Z,210
2017-08-15T08:58:04.945Z,210
2017-08-15T08:59:04.622Z,195
2017-08-15T09:00:04.993Z,195
2017-08-15T09:01:04.314Z,190
2017-08-15T09:02:04.337Z,180
2017-08-15T09:03:04.339Z,175
2017-08-15T09:04:04.638Z,175
2017-08-15T09:05:04.320Z,170
2017-08-15T09:06:04.644Z,165
2017-08-15T09:07:04.668Z,165
2017-08-15T09:08:04.977Z,160
2017-08-15T09:09:05.013Z,160
2017-08-15T09:10:04.356Z,155
2017-08-15T09:11:04.352Z,155
2017-08-15T09:12:04.691Z,155
2017-08-15T09:13:04.992Z,155
2017-08-15T09:14:04.681Z,155
2017-08-15T09:15:04.675Z,155
2017-08-15T09:16:04.345Z,155
2017-08-15T09:17:04.991Z,150
2017-08-15T09:18:05.015Z,150
2017-08-15T09:19:04.350Z,150
2017-08-15T09:20:04.718Z,150
2017-08-15T09:21:05.021Z,150
2017-08-15T09:22:04.693Z,150
2017-08-15T09:23:05.001Z,150
2017-08-15T09:24:05.008Z,150
2017-08-15T09:25:04.733Z,150
2017-08-15T09:26:04.705Z,150
2017-08-15T09:27:04.395Z,150
2017-08-15T09:28:05.031Z,155
2017-08-15T09:29:04.412Z,155
2017-08-15T09:30:04.387Z,155
2017-08-15T09:31:05.022Z,155
2017-08-15T09:32:04.730Z,150
2017-08-15T09:33:04.388Z,150
2017-08-15T09:34:05.038Z,150
2017-08-15T09:35:05.034Z,150
2017-08-15T09:36:04.742Z,150
2017-08-15T09:37:05.055Z,150
2017-08-15T09:38:04.726Z,150
2017-08-15T09:39:04.724Z,150
2017-08-15T09:40:05.074Z,150
2017-08-15T09:41:04.741Z,150
2017-08-15T09:42:05.074Z,150
2017-08-15T09:43:05.090Z,150
2017-08-15T09:44:05.080Z,150
2017-08-15T09:45:04.751Z,150
2017-08-15T09:46:05.065Z,150
2017-08-15T09:47:04.425Z,150
2017-08-15T09:48:05.083Z,150
2017-08-15T09:49:04.472Z,150
2017-08-15T09:50:04.425Z,150
2017-08-15T09:51:04.443Z,150
2017-08-15T09:52:04.774Z,150
2017-08-15T09:53:05.086Z,150
2017-08-15T09:54:05.094Z,150
2017-08-15T09:55:04.460Z,150
2017-08-15T09:56:04.453Z,150
2017-08-15T09:57:05.093Z,150
2017-08-15T09:58:05.102Z,150
2017-08-15T09:59:04.476Z,150
2017-08-15T10:00:05.109Z,150
2017-08-15T10:01:04.808Z,150
2017-08-15T10:02:04.463Z,150
2017-08-15T10:03:04.791Z,150
2017-08-15T10:04:04.493Z,150
2017-08-15T10:05:04.795Z,150
2017-08-15T10:06:05.146Z,150
2017-08-15T10:07:05.167Z,150
2017-08-15T10:08:04.480Z,155
2017-08-15T10:09:05.137Z,150
2017-08-15T10:10:05.138Z,150
2017-08-15T10:11:05.144Z,155
2017-08-15T10:12:04.174Z,155
2017-08-15T10:13:04.819Z,155
2017-08-15T10:14:04.506Z,155
2017-08-15T10:15:04.518Z,155
2017-08-15T10:16:04.191Z,155
2017-08-15T10:17:05.199Z,155
2017-08-15T10:18:05.192Z,155
2017-08-15T10:19:04.543Z,155
2017-08-15T10:20:04.532Z,160
2017-08-15T10:21:04.558Z,160
2017-08-15T10:22:04.890Z,160
2017-08-15T10:23:04.532Z,160
2017-08-15T10:24:05.192Z,170
2017-08-15T10:25:04.854Z,165
2017-08-15T10:26:05.192Z,160
2017-08-15T10:27:04.871Z,155
2017-08-15T10:28:05.195Z,155
2017-08-15T10:29:04.890Z,155
2017-08-15T10:30:04.882Z,155
2017-08-15T10:31:05.239Z,155
2017-08-15T10:32:04.944Z,155
2017-08-15T10:33:04.890Z,155
2017-08-15T10:34:04.594Z,155
2017-08-15T10:35:05.234Z,155
2017-08-15T10:36:04.893Z,150
2017-08-15T10:37:05.217Z,150
2017-08-15T10:38:05.219Z,150
2017-08-15T10:39:04.955Z,150
2017-08-15T10:40:04.596Z,150
2017-08-15T10:41:04.925Z,150
2017-08-15T10:42:04.952Z,150
2017-08-15T10:43:04.617Z,150
2017-08-15T10:44:05.246Z,155
2017-08-15T10:45:05.246Z,155
2017-08-15T10:46:04.960Z,155
2017-08-15T10:47:04.317Z,155
2017-08-15T10:48:05.258Z,160
2017-08-15T10:49:04.658Z,170
2017-08-15T10:50:04.958Z,195
2017-08-15T10:51:04.995Z,215
2017-08-15T10:52:04.976Z,200
2017-08-15T10:53:04.955Z,180
2017-08-15T10:54:04.674Z,175
2017-08-15T10:55:04.648Z,165
2017-08-15T10:56:05.300Z,160
2017-08-15T10:57:05.016Z,160
2017-08-15T10:58:04.983Z,160
2017-08-15T10:59:04.997Z,155
2017-08-15T11:00:04.987Z,155
2017-08-15T11:01:04.345Z,150
2017-08-15T11:02:04.681Z,150
2017-08-15T11:03:05.020Z,150
2017-08-15T11:04:04.707Z,145
2017-08-15T11:05:05.012Z,145
2017-08-15T11:06:05.351Z,145
2017-08-15T11:07:05.058Z,145
2017-08-15T11:08:05.025Z,145
2017-08-15T11:09:05.031Z,145
2017-08-15T11:10:05.031Z,145
2017-08-15T11:11:05.047Z,145
2017-08-15T11:12:05.348Z,145
2017-08-15T11:13:04.708Z,145
2017-08-15T11:14:05.061Z,145
2017-08-15T11:15:04.715Z,145
2017-08-15T11:16:04.752Z,145
2017-08-15T11:17:04.740Z,145
2017-08-15T11:18:05.068Z,145
2017-08-15T11:19:05.067Z,145
2017-08-15T11:20:04.736Z,145
2017-08-15T11:21:05.063Z,145
2017-08-15T11:22:05.431Z,150
2017-08-15T11:23:05.077Z,150
2017-08-15T11:24:05.090Z,150
2017-08-15T11:25:05.400Z,150
2017-08-15T11:26:05.079Z,150
2017-08-15T11:27:04.767Z,150
2017-08-15T11:28:05.095Z,155
2017-08-15T11:29:05.424Z,155
2017-08-15T11:30:05.097Z,150
2017-08-15T11:31:05.110Z,150
2017-08-15T11:32:05.125Z,150
2017-08-15T11:33:05.451Z,155
2017-08-15T11:34:05.125Z,160
2017-08-15T11:35:05.132Z,155
2017-08-15T11:36:05.153Z,150
2017-08-15T11:37:05.142Z,150
2017-08-15T11:38:04.484Z,145
2017-08-15T11:39:05.125Z,145
2017-08-15T11:40:05.143Z,145
2017-08-15T11:41:05.162Z,145
2017-08-15T11:42:05.184Z,145
2017-08-15T11:43:05.197Z,140
2017-08-15T11:44:04.508Z,140
2017-08-15T11:45:04.836Z,140
2017-08-15T11:46:05.489Z,140
2017-08-15T11:47:05.185Z,140
2017-08-15T11:48:05.234Z,140
2017-08-15T11:49:04.859Z,140
2017-08-15T11:50:05.177Z,140
2017-08-15T11:51:05.174Z,140
2017-08-15T11:52:05.506Z,140
2017-08-15T11:53:05.530Z,140
2017-08-15T11:54:05.253Z,140
2017-08-15T11:55:05.207Z,140
2017-08-15T11:56:05.521Z,140
2017-08-15T11:57:05.535Z,140
2017-08-15T11:58:05.209Z,140
2017-08-15T11:59:05.208Z,140
2017-08-15T12:00:04.912Z,140
2017-08-15T12:01:05.227Z,140
2017-08-15T12:02:05.551Z,140
2017-08-15T12:03:05.224Z,140
2017-08-15T12:04:05.569Z,140
2017-08-15T12:05:05.558Z,140
2017-08-15T12:06:05.271Z,140
2017-08-15T12:07:05.569Z,140
2017-08-15T12:08:04.947Z,140
2017-08-15T12:09:04.944Z,140
2017-08-15T12:10:04.815Z,140
2017-08-15T12:11:05.254Z,140
2017-08-15T12:12:04.965Z,140
2017-08-15T12:13:05.267Z,145
2017-08-15T12:14:04.953Z,145
2017-08-15T12:15:05.636Z,145
2017-08-15T12:16:05.624Z,145
2017-08-15T12:17:05.282Z,145
2017-08-15T12:18:04.984Z,150
2017-08-15T12:19:04.976Z,155
2017-08-15T12:20:05.619Z,145
2017-08-15T12:21:05.620Z,145
2017-08-15T12:22:05.619Z,145
2017-08-15T12:23:05.624Z,145
2017-08-15T12:24:05.646Z,145
2017-08-15T12:25:05.646Z,145
2017-08-15T12:26:05.011Z,140
2017-08-15T12:27:05.351Z,140
2017-08-15T12:28:05.653Z,140
2017-08-15T12:29:05.662Z,140
2017-08-15T12:30:05.014Z,140
2017-08-15T12:31:05.051Z,140
2017-08-15T12:32:05.048Z,145
2017-08-15T12:33:05.358Z,145
2017-08-15T12:34:05.366Z,145
2017-08-15T12:35:05.036Z,150
2017-08-15T12:36:05.695Z,155
2017-08-15T12:37:05.056Z,155
2017-08-15T12:38:04.719Z,155
2017-08-15T12:39:05.391Z,155
2017-08-15T12:40:04.426Z,155
2017-08-15T12:41:05.719Z,150
2017-08-15T12:42:05.397Z,150
2017-08-15T12:43:05.384Z,150
2017-08-15T12:44:05.724Z,165
2017-08-15T12:45:05.069Z,165
2017-08-15T12:46:05.424Z,150
2017-08-15T12:47:05.456Z,150
2017-08-15T12:48:05.760Z,145
2017-08-15T12:49:05.462Z,145
2017-08-15T12:50:05.735Z,145
2017-08-15T12:51:05.439Z,140
2017-08-15T12:52:05.110Z,150
2017-08-15T12:53:05.453Z,200
2017-08-15T12:54:06.921Z,190
2017-08-15T12:55:05.127Z,185
2017-08-15T12:56:05.120Z,185
2017-08-15T12:57:05.466Z,180
2017-08-15T12:58:05.122Z,180
2017-08-15T12:59:05.448Z,175
2017-08-15T13:00:05.138Z,185
2017-08-15T13:01:04.816Z,205
2017-08-15T13:02:05.774Z,195
2017-08-15T13:03:05.165Z,185
2017-08-15T13:04:05.481Z,155
2017-08-15T13:05:05.182Z,140
2017-08-15T13:06:05.816Z,145
2017-08-15T13:07:05.489Z,140
2017-08-15T13:08:05.495Z,145
2017-08-15T13:09:05.496Z,180
2017-08-15T13:10:05.167Z,210
2017-08-15T13:11:05.494Z,220
2017-08-15T13:12:05.195Z,220
2017-08-15T13:13:05.193Z,225
2017-08-15T13:14:05.842Z,235
2017-08-15T13:15:05.207Z,210
2017-08-15T13:16:05.543Z,215
2017-08-15T13:17:04.887Z,200
2017-08-15T13:18:05.532Z,195
2017-08-15T13:19:05.538Z,170
2017-08-15T13:20:05.234Z,180
2017-08-15T13:21:05.538Z,160
2017-08-15T13:22:05.538Z,160
2017-08-15T13:23:05.590Z,175
2017-08-15T13:24:05.234Z,205
2017-08-15T13:25:05.548Z,245
2017-08-15T13:26:05.556Z,270
2017-08-15T13:27:05.580Z,250
2017-08-15T13:28:05.888Z,235
2017-08-15T13:29:05.581Z,235
2017-08-15T13:30:05.893Z,230
2017-08-15T13:31:05.262Z,215
2017-08-15T13:32:05.921Z,195
2017-08-15T13:33:05.592Z,195
2017-08-15T13:34:04.985Z,200
2017-08-15T13:35:05.915Z,205
2017-08-15T13:36:05.918Z,230
2017-08-15T13:37:05.608Z,240
2017-08-15T13:38:04.984Z,285
2017-08-15T13:39:05.929Z,310
2017-08-15T13:40:05.305Z,330
2017-08-15T13:41:05.315Z,365
2017-08-15T13:42:05.635Z,370
2017-08-15T13:43:05.960Z,350
2017-08-15T13:44:05.351Z,340
2017-08-15T13:45:05.324Z,340
2017-08-15T13:46:05.647Z,340
2017-08-15T13:47:05.321Z,345
2017-08-15T13:48:05.662Z,330
2017-08-15T13:49:05.004Z,295
2017-08-15T13:50:05.008Z,260
2017-08-15T13:51:05.982Z,245
2017-08-15T13:52:05.348Z,235
2017-08-15T13:53:05.999Z,245
2017-08-15T13:54:05.356Z,250
2017-08-15T13:55:05.712Z,235
2017-08-15T13:56:06.007Z,220
2017-08-15T13:57:05.067Z,205
2017-08-15T13:58:06.039Z,205
2017-08-15T13:59:05.708Z,210
2017-08-15T14:00:05.743Z,215
2017-08-15T14:01:06.037Z,215
2017-08-15T14:02:06.065Z,215
2017-08-15T14:03:06.069Z,215
2017-08-15T14:04:05.401Z,210